sensor_id;sensor_type;location;lat;lon;timestamp;temperature;humidity
30648;DHT22;17683;53.360;9.736;2022-07-30T00:00:06;18.80;99.90
30648;DHT22;17683;53.360;9.736;2022-07-30T00:02:33;18.80;99.90
30648;DHT22;17683;53.360;9.736;2022-07-30T00:04:59;18.80;99.90
30648;DHT22;17683;53.360;9.736;2022-07-30T00:07:24;18.80;99.90
30648;DHT22;17683;53.360;9.736;2022-07-30T00:09:50;18.80;99.90
30648;DHT22;17683;53.360;9.736;2022-07-30T00:12:16;18.70;99.90
30648;DHT22;17683;53.360;9.736;2022-07-30T00:14:42;18.70;99.90
30648;DHT22;17683;53.360;9.736;2022-07-30T00:17:07;18.70;99.90
30648;DHT22;17683;53.360;9.736;2022-07-30T00:19:33;18.70;99.90
30648;DHT22;17683;53.360;9.736;2022-07-30T00:21:59;18.70;99.90
30648;DHT22;17683;53.360;9.736;2022-07-30T00:24:25;18.70;99.90
30648;DHT22;17683;53.360;9.736;2022-07-30T00:26:51;18.70;99.90
30648;DHT22;17683;53.360;9.736;2022-07-30T00:29:16;18.70;99.90
30648;DHT22;17683;53.360;9.736;2022-07-30T00:31:42;18.60;99.90
30648;DHT22;17683;53.360;9.736;2022-07-30T00:34:08;18.70;99.90
30648;DHT22;17683;53.360;9.736;2022-07-30T00:36:34;18.60;99.90
30648;DHT22;17683;53.360;9.736;2022-07-30T00:39:00;18.60;99.90
30648;DHT22;17683;53.360;9.736;2022-07-30T00:41:26;18.60;99.90
30648;DHT22;17683;53.360;9.736;2022-07-30T00:43:52;18.60;99.90
30648;DHT22;17683;53.360;9.736;2022-07-30T00:46:17;18.50;99.90
30648;DHT22;17683;53.360;9.736;2022-07-30T00:48:44;18.50;99.90
30648;DHT22;17683;53.360;9.736;2022-07-30T00:51:10;18.50;99.90
30648;DHT22;17683;53.360;9.736;2022-07-30T00:53:36;18.50;99.90
30648;DHT22;17683;53.360;9.736;2022-07-30T00:56:03;18.50;99.90
30648;DHT22;17683;53.360;9.736;2022-07-30T00:58:29;18.50;99.90
30648;DHT22;17683;53.360;9.736;2022-07-30T01:00:55;18.50;99.90
30648;DHT22;17683;53.360;9.736;2022-07-30T01:03:20;18.50;99.90
30648;DHT22;17683;53.360;9.736;2022-07-30T01:05:46;18.50;99.90
30648;DHT22;17683;53.360;9.736;2022-07-30T01:08:12;18.50;99.90
30648;DHT22;17683;53.360;9.736;2022-07-30T01:10:38;18.50;99.90
30648;DHT22;17683;53.360;9.736;2022-07-30T01:13:04;18.40;99.90
30648;DHT22;17683;53.360;9.736;2022-07-30T01:15:31;18.40;99.90
30648;DHT22;17683;53.360;9.736;2022-07-30T01:18:00;18.40;99.90
30648;DHT22;17683;53.360;9.736;2022-07-30T01:20:55;18.40;99.90
30648;DHT22;17683;53.360;9.736;2022-07-30T01:23:41;18.40;99.90
30648;DHT22;17683;53.360;9.736;2022-07-30T01:26:08;18.40;99.90
30648;DHT22;17683;53.360;9.736;2022-07-30T01:28:42;18.40;99.90
30648;DHT22;17683;53.360;9.736;2022-07-30T01:31:09;18.40;99.90
30648;DHT22;17683;53.360;9.736;2022-07-30T01:33:39;18.40;99.90
30648;DHT22;17683;53.360;9.736;2022-07-30T01:36:07;18.40;99.90
30648;DHT22;17683;53.360;9.736;2022-07-30T01:38:36;18.30;99.90
30648;DHT22;17683;53.360;9.736;2022-07-30T01:41:04;18.30;99.90
30648;DHT22;17683;53.360;9.736;2022-07-30T01:43:33;18.30;99.90
30648;DHT22;17683;53.360;9.736;2022-07-30T01:46:01;18.30;99.90
30648;DHT22;17683;53.360;9.736;2022-07-30T01:48:28;18.30;99.90
30648;DHT22;17683;53.360;9.736;2022-07-30T01:50:57;18.30;99.90
30648;DHT22;17683;53.360;9.736;2022-07-30T01:53:26;18.30;99.90
30648;DHT22;17683;53.360;9.736;2022-07-30T01:55:55;18.30;99.90
30648;DHT22;17683;53.360;9.736;2022-07-30T01:58:23;18.30;99.90
30648;DHT22;17683;53.360;9.736;2022-07-30T02:00:51;18.30;99.90
30648;DHT22;17683;53.360;9.736;2022-07-30T02:03:19;18.30;99.90
30648;DHT22;17683;53.360;9.736;2022-07-30T02:05:53;18.30;99.90
30648;DHT22;17683;53.360;9.736;2022-07-30T02:10:56;18.30;99.90
30648;DHT22;17683;53.360;9.736;2022-07-30T02:13:27;18.30;99.90
30648;DHT22;17683;53.360;9.736;2022-07-30T02:15:58;18.20;99.90
30648;DHT22;17683;53.360;9.736;2022-07-30T02:18:30;18.20;99.90
30648;DHT22;17683;53.360;9.736;2022-07-30T02:21:04;18.20;99.90
30648;DHT22;17683;53.360;9.736;2022-07-30T02:23:35;18.20;99.90
30648;DHT22;17683;53.360;9.736;2022-07-30T02:26:03;18.20;99.90
30648;DHT22;17683;53.360;9.736;2022-07-30T02:28:34;18.20;99.90
30648;DHT22;17683;53.360;9.736;2022-07-30T02:31:02;18.20;99.90
30648;DHT22;17683;53.360;9.736;2022-07-30T02:33:33;18.20;99.90
30648;DHT22;17683;53.360;9.736;2022-07-30T02:36:02;18.20;99.90
30648;DHT22;17683;53.360;9.736;2022-07-30T02:38:29;18.20;99.90
30648;DHT22;17683;53.360;9.736;2022-07-30T02:40:57;18.20;99.90
30648;DHT22;17683;53.360;9.736;2022-07-30T02:43:24;18.20;99.90
30648;DHT22;17683;53.360;9.736;2022-07-30T02:45:51;18.20;99.90
30648;DHT22;17683;53.360;9.736;2022-07-30T02:48:19;18.20;99.90
30648;DHT22;17683;53.360;9.736;2022-07-30T02:50:47;18.20;99.90
30648;DHT22;17683;53.360;9.736;2022-07-30T02:53:13;18.20;99.90
30648;DHT22;17683;53.360;9.736;2022-07-30T02:55:41;18.20;99.90
30648;DHT22;17683;53.360;9.736;2022-07-30T02:58:08;18.10;99.90
30648;DHT22;17683;53.360;9.736;2022-07-30T03:00:36;18.10;99.90
30648;DHT22;17683;53.360;9.736;2022-07-30T03:03:04;18.10;99.90
30648;DHT22;17683;53.360;9.736;2022-07-30T03:05:32;18.10;99.90
30648;DHT22;17683;53.360;9.736;2022-07-30T03:07:58;18.10;99.90
30648;DHT22;17683;53.360;9.736;2022-07-30T03:10:25;18.10;99.90
30648;DHT22;17683;53.360;9.736;2022-07-30T03:12:52;18.10;99.90
30648;DHT22;17683;53.360;9.736;2022-07-30T03:15:18;18.10;99.90
30648;DHT22;17683;53.360;9.736;2022-07-30T03:17:47;18.10;99.90
30648;DHT22;17683;53.360;9.736;2022-07-30T03:20:17;18.10;99.90
30648;DHT22;17683;53.360;9.736;2022-07-30T03:22:47;18.10;99.90
30648;DHT22;17683;53.360;9.736;2022-07-30T03:25:21;18.10;99.90
30648;DHT22;17683;53.360;9.736;2022-07-30T03:27:47;18.00;99.90
30648;DHT22;17683;53.360;9.736;2022-07-30T03:30:13;18.00;99.90
30648;DHT22;17683;53.360;9.736;2022-07-30T03:32:40;18.00;99.90
30648;DHT22;17683;53.360;9.736;2022-07-30T03:35:07;18.00;99.90
30648;DHT22;17683;53.360;9.736;2022-07-30T03:37:36;18.00;99.90
30648;DHT22;17683;53.360;9.736;2022-07-30T03:40:04;18.00;99.90
30648;DHT22;17683;53.360;9.736;2022-07-30T03:42:31;18.00;99.90
30648;DHT22;17683;53.360;9.736;2022-07-30T03:44:58;18.00;99.90
30648;DHT22;17683;53.360;9.736;2022-07-30T03:47:26;17.90;99.90
30648;DHT22;17683;53.360;9.736;2022-07-30T03:49:52;18.00;99.90
30648;DHT22;17683;53.360;9.736;2022-07-30T03:52:18;17.90;99.90
30648;DHT22;17683;53.360;9.736;2022-07-30T03:54:45;17.90;99.90
30648;DHT22;17683;53.360;9.736;2022-07-30T03:57:12;17.90;99.90
30648;DHT22;17683;53.360;9.736;2022-07-30T03:59:38;17.90;99.90
30648;DHT22;17683;53.360;9.736;2022-07-30T04:02:04;17.90;99.90
30648;DHT22;17683;53.360;9.736;2022-07-30T04:04:30;17.90;99.90
30648;DHT22;17683;53.360;9.736;2022-07-30T04:06:56;18.00;99.90
30648;DHT22;17683;53.360;9.736;2022-07-30T04:09:23;17.90;99.90
30648;DHT22;17683;53.360;9.736;2022-07-30T04:11:49;17.90;99.90
30648;DHT22;17683;53.360;9.736;2022-07-30T04:14:16;17.90;99.90
30648;DHT22;17683;53.360;9.736;2022-07-30T04:16:58;17.90;99.90
30648;DHT22;17683;53.360;9.736;2022-07-30T04:19:34;17.90;99.90
30648;DHT22;17683;53.360;9.736;2022-07-30T04:22:03;17.90;99.90
30648;DHT22;17683;53.360;9.736;2022-07-30T04:24:31;17.90;99.90
30648;DHT22;17683;53.360;9.736;2022-07-30T04:26:59;17.90;99.90
30648;DHT22;17683;53.360;9.736;2022-07-30T04:29:25;17.90;99.90
30648;DHT22;17683;53.360;9.736;2022-07-30T04:31:54;17.90;99.90
30648;DHT22;17683;53.360;9.736;2022-07-30T04:34:20;17.90;99.90
30648;DHT22;17683;53.360;9.736;2022-07-30T04:36:46;17.80;99.90
30648;DHT22;17683;53.360;9.736;2022-07-30T04:39:12;17.90;99.90
30648;DHT22;17683;53.360;9.736;2022-07-30T04:41:39;17.90;99.90
30648;DHT22;17683;53.360;9.736;2022-07-30T04:44:05;17.90;99.90
30648;DHT22;17683;53.360;9.736;2022-07-30T04:46:31;17.90;99.90
30648;DHT22;17683;53.360;9.736;2022-07-30T04:48:57;17.90;99.90
30648;DHT22;17683;53.360;9.736;2022-07-30T04:51:28;17.90;99.90
30648;DHT22;17683;53.360;9.736;2022-07-30T04:53:57;17.90;99.90
30648;DHT22;17683;53.360;9.736;2022-07-30T04:56:24;17.80;99.90
30648;DHT22;17683;53.360;9.736;2022-07-30T04:58:51;17.80;99.90
30648;DHT22;17683;53.360;9.736;2022-07-30T05:01:24;17.80;99.90
30648;DHT22;17683;53.360;9.736;2022-07-30T05:03:52;17.80;99.90
30648;DHT22;17683;53.360;9.736;2022-07-30T05:06:19;17.80;99.90
30648;DHT22;17683;53.360;9.736;2022-07-30T05:08:46;17.80;99.90
30648;DHT22;17683;53.360;9.736;2022-07-30T05:11:12;17.90;99.90
30648;DHT22;17683;53.360;9.736;2022-07-30T05:13:45;17.90;99.90
30648;DHT22;17683;53.360;9.736;2022-07-30T05:16:13;17.90;99.90
30648;DHT22;17683;53.360;9.736;2022-07-30T05:18:39;17.80;99.90
30648;DHT22;17683;53.360;9.736;2022-07-30T05:21:05;17.80;99.90
30648;DHT22;17683;53.360;9.736;2022-07-30T05:23:31;17.80;99.90
30648;DHT22;17683;53.360;9.736;2022-07-30T05:25:57;17.80;99.90
30648;DHT22;17683;53.360;9.736;2022-07-30T05:28:22;17.80;99.90
30648;DHT22;17683;53.360;9.736;2022-07-30T05:30:54;17.80;99.90
30648;DHT22;17683;53.360;9.736;2022-07-30T05:33:21;17.80;99.90
30648;DHT22;17683;53.360;9.736;2022-07-30T05:35:47;17.80;99.90
30648;DHT22;17683;53.360;9.736;2022-07-30T05:38:13;17.80;99.90
30648;DHT22;17683;53.360;9.736;2022-07-30T05:40:39;17.80;99.90
30648;DHT22;17683;53.360;9.736;2022-07-30T05:43:05;17.80;99.90
30648;DHT22;17683;53.360;9.736;2022-07-30T05:45:31;17.80;99.90
30648;DHT22;17683;53.360;9.736;2022-07-30T05:47:57;17.80;99.90
30648;DHT22;17683;53.360;9.736;2022-07-30T05:50:22;17.80;99.90
30648;DHT22;17683;53.360;9.736;2022-07-30T05:52:48;17.80;99.90
30648;DHT22;17683;53.360;9.736;2022-07-30T05:55:14;17.80;99.90
30648;DHT22;17683;53.360;9.736;2022-07-30T05:57:40;17.90;99.90
30648;DHT22;17683;53.360;9.736;2022-07-30T06:00:08;17.90;99.90
30648;DHT22;17683;53.360;9.736;2022-07-30T06:02:35;17.90;99.90
30648;DHT22;17683;53.360;9.736;2022-07-30T06:05:01;17.90;99.90
30648;DHT22;17683;53.360;9.736;2022-07-30T06:07:27;17.90;99.90
30648;DHT22;17683;53.360;9.736;2022-07-30T06:09:53;17.90;99.90
30648;DHT22;17683;53.360;9.736;2022-07-30T06:12:25;17.90;99.90
30648;DHT22;17683;53.360;9.736;2022-07-30T06:14:51;17.90;99.90
30648;DHT22;17683;53.360;9.736;2022-07-30T06:17:16;18.00;99.90
30648;DHT22;17683;53.360;9.736;2022-07-30T06:19:42;18.00;99.90
30648;DHT22;17683;53.360;9.736;2022-07-30T06:22:08;18.00;99.90
30648;DHT22;17683;53.360;9.736;2022-07-30T06:24:33;18.10;99.90
30648;DHT22;17683;53.360;9.736;2022-07-30T06:26:59;18.10;99.90
30648;DHT22;17683;53.360;9.736;2022-07-30T06:29:25;18.10;99.90
30648;DHT22;17683;53.360;9.736;2022-07-30T06:31:51;18.10;99.90
30648;DHT22;17683;53.360;9.736;2022-07-30T06:34:16;18.20;99.90
30648;DHT22;17683;53.360;9.736;2022-07-30T06:36:42;18.20;99.90
30648;DHT22;17683;53.360;9.736;2022-07-30T06:39:08;18.30;99.90
30648;DHT22;17683;53.360;9.736;2022-07-30T06:41:33;18.30;99.90
30648;DHT22;17683;53.360;9.736;2022-07-30T06:43:59;18.40;99.90
30648;DHT22;17683;53.360;9.736;2022-07-30T06:46:25;18.40;99.90
30648;DHT22;17683;53.360;9.736;2022-07-30T06:48:51;18.40;99.90
30648;DHT22;17683;53.360;9.736;2022-07-30T06:51:16;18.50;99.90
30648;DHT22;17683;53.360;9.736;2022-07-30T06:53:42;18.50;99.90
30648;DHT22;17683;53.360;9.736;2022-07-30T06:56:11;18.50;99.90
30648;DHT22;17683;53.360;9.736;2022-07-30T06:58:37;18.60;99.90
30648;DHT22;17683;53.360;9.736;2022-07-30T07:01:03;18.60;99.90
30648;DHT22;17683;53.360;9.736;2022-07-30T07:03:29;18.60;99.90
30648;DHT22;17683;53.360;9.736;2022-07-30T07:05:55;18.60;99.90
30648;DHT22;17683;53.360;9.736;2022-07-30T07:08:20;18.60;99.90
30648;DHT22;17683;53.360;9.736;2022-07-30T07:10:46;18.60;99.90
30648;DHT22;17683;53.360;9.736;2022-07-30T07:13:12;18.70;99.90
30648;DHT22;17683;53.360;9.736;2022-07-30T07:15:38;18.70;99.90
30648;DHT22;17683;53.360;9.736;2022-07-30T07:18:04;18.70;99.90
30648;DHT22;17683;53.360;9.736;2022-07-30T07:20:32;18.80;99.90
30648;DHT22;17683;53.360;9.736;2022-07-30T07:22:58;18.80;99.90
30648;DHT22;17683;53.360;9.736;2022-07-30T07:25:24;18.80;99.90
30648;DHT22;17683;53.360;9.736;2022-07-30T07:27:49;18.80;99.90
30648;DHT22;17683;53.360;9.736;2022-07-30T07:30:15;18.80;99.90
30648;DHT22;17683;53.360;9.736;2022-07-30T07:32:41;18.90;99.90
30648;DHT22;17683;53.360;9.736;2022-07-30T07:35:07;18.80;99.90
30648;DHT22;17683;53.360;9.736;2022-07-30T07:37:33;18.90;99.90
30648;DHT22;17683;53.360;9.736;2022-07-30T07:39:58;18.90;99.90
30648;DHT22;17683;53.360;9.736;2022-07-30T07:42:24;18.90;99.90
30648;DHT22;17683;53.360;9.736;2022-07-30T07:44:50;18.90;99.90
30648;DHT22;17683;53.360;9.736;2022-07-30T07:47:16;19.00;99.90
30648;DHT22;17683;53.360;9.736;2022-07-30T07:49:42;19.00;99.90
30648;DHT22;17683;53.360;9.736;2022-07-30T07:52:07;19.00;99.90
30648;DHT22;17683;53.360;9.736;2022-07-30T07:54:33;19.00;99.90
30648;DHT22;17683;53.360;9.736;2022-07-30T07:56:59;19.00;99.90
30648;DHT22;17683;53.360;9.736;2022-07-30T07:59:25;19.00;99.90
30648;DHT22;17683;53.360;9.736;2022-07-30T08:01:50;19.00;99.90
30648;DHT22;17683;53.360;9.736;2022-07-30T08:04:16;19.00;99.90
30648;DHT22;17683;53.360;9.736;2022-07-30T08:06:42;19.00;99.90
30648;DHT22;17683;53.360;9.736;2022-07-30T08:09:08;18.90;99.90
30648;DHT22;17683;53.360;9.736;2022-07-30T08:11:33;19.00;99.90
30648;DHT22;17683;53.360;9.736;2022-07-30T08:13:59;18.90;99.90
30648;DHT22;17683;53.360;9.736;2022-07-30T08:16:25;18.90;99.90
30648;DHT22;17683;53.360;9.736;2022-07-30T08:18:51;18.90;99.90
30648;DHT22;17683;53.360;9.736;2022-07-30T08:21:16;18.90;99.90
30648;DHT22;17683;53.360;9.736;2022-07-30T08:23:42;18.90;99.90
30648;DHT22;17683;53.360;9.736;2022-07-30T08:26:08;18.90;99.90
30648;DHT22;17683;53.360;9.736;2022-07-30T08:28:37;18.90;99.90
30648;DHT22;17683;53.360;9.736;2022-07-30T08:31:03;18.90;99.90
30648;DHT22;17683;53.360;9.736;2022-07-30T08:33:28;18.90;99.90
30648;DHT22;17683;53.360;9.736;2022-07-30T08:35:54;18.90;99.90
30648;DHT22;17683;53.360;9.736;2022-07-30T08:38:20;18.90;99.90
30648;DHT22;17683;53.360;9.736;2022-07-30T08:40:46;18.90;99.90
30648;DHT22;17683;53.360;9.736;2022-07-30T08:43:11;18.90;99.90
30648;DHT22;17683;53.360;9.736;2022-07-30T08:45:38;18.90;99.90
30648;DHT22;17683;53.360;9.736;2022-07-30T08:48:07;19.00;99.90
30648;DHT22;17683;53.360;9.736;2022-07-30T08:50:35;19.10;99.90
30648;DHT22;17683;53.360;9.736;2022-07-30T08:53:01;19.10;99.90
30648;DHT22;17683;53.360;9.736;2022-07-30T08:55:27;19.20;99.90
30648;DHT22;17683;53.360;9.736;2022-07-30T08:57:53;19.20;99.90
30648;DHT22;17683;53.360;9.736;2022-07-30T09:00:19;19.30;99.90
30648;DHT22;17683;53.360;9.736;2022-07-30T09:02:46;19.30;99.90
30648;DHT22;17683;53.360;9.736;2022-07-30T09:05:12;19.40;99.90
30648;DHT22;17683;53.360;9.736;2022-07-30T09:07:39;19.50;99.90
30648;DHT22;17683;53.360;9.736;2022-07-30T09:10:07;19.60;99.90
30648;DHT22;17683;53.360;9.736;2022-07-30T09:18:17;19.80;99.90
30648;DHT22;17683;53.360;9.736;2022-07-30T09:20:36;19.80;99.90
30648;DHT22;17683;53.360;9.736;2022-07-30T09:23:03;19.90;99.90
30648;DHT22;17683;53.360;9.736;2022-07-30T09:25:44;20.00;99.90
30648;DHT22;17683;53.360;9.736;2022-07-30T09:28:11;20.00;99.90
30648;DHT22;17683;53.360;9.736;2022-07-30T09:30:45;20.00;99.90
30648;DHT22;17683;53.360;9.736;2022-07-30T09:33:11;20.10;99.90
30648;DHT22;17683;53.360;9.736;2022-07-30T09:35:38;20.20;99.90
30648;DHT22;17683;53.360;9.736;2022-07-30T09:38:05;20.20;99.90
30648;DHT22;17683;53.360;9.736;2022-07-30T09:40:31;20.30;99.90
30648;DHT22;17683;53.360;9.736;2022-07-30T09:43:15;20.30;99.90
30648;DHT22;17683;53.360;9.736;2022-07-30T09:45:55;20.40;99.90
30648;DHT22;17683;53.360;9.736;2022-07-30T09:48:25;20.50;99.90
30648;DHT22;17683;53.360;9.736;2022-07-30T09:50:52;20.60;99.90
30648;DHT22;17683;53.360;9.736;2022-07-30T09:53:19;20.70;99.90
30648;DHT22;17683;53.360;9.736;2022-07-30T09:55:47;20.80;99.90
30648;DHT22;17683;53.360;9.736;2022-07-30T09:58:13;20.80;99.90
30648;DHT22;17683;53.360;9.736;2022-07-30T10:00:39;20.90;99.90
30648;DHT22;17683;53.360;9.736;2022-07-30T10:03:19;21.00;99.90
30648;DHT22;17683;53.360;9.736;2022-07-30T10:05:53;21.10;99.90
30648;DHT22;17683;53.360;9.736;2022-07-30T10:08:19;21.20;99.90
30648;DHT22;17683;53.360;9.736;2022-07-30T10:10:46;21.20;99.90
30648;DHT22;17683;53.360;9.736;2022-07-30T10:13:15;21.30;99.90
30648;DHT22;17683;53.360;9.736;2022-07-30T10:15:41;21.30;99.90
30648;DHT22;17683;53.360;9.736;2022-07-30T10:18:08;21.40;99.90
30648;DHT22;17683;53.360;9.736;2022-07-30T10:20:35;21.50;99.90
30648;DHT22;17683;53.360;9.736;2022-07-30T10:23:01;21.50;99.90
30648;DHT22;17683;53.360;9.736;2022-07-30T10:25:30;21.60;99.90
30648;DHT22;17683;53.360;9.736;2022-07-30T10:27:58;21.60;99.90
30648;DHT22;17683;53.360;9.736;2022-07-30T10:30:25;21.60;99.90
30648;DHT22;17683;53.360;9.736;2022-07-30T10:32:52;21.60;99.90
30648;DHT22;17683;53.360;9.736;2022-07-30T10:35:18;21.60;99.90
30648;DHT22;17683;53.360;9.736;2022-07-30T10:37:47;21.80;99.90
30648;DHT22;17683;53.360;9.736;2022-07-30T10:42:59;22.00;99.90
30648;DHT22;17683;53.360;9.736;2022-07-30T10:48:09;22.10;99.90
30648;DHT22;17683;53.360;9.736;2022-07-30T10:50:52;22.20;99.90
30648;DHT22;17683;53.360;9.736;2022-07-30T10:53:41;22.20;99.90
30648;DHT22;17683;53.360;9.736;2022-07-30T10:56:21;22.30;99.90
30648;DHT22;17683;53.360;9.736;2022-07-30T10:59:00;22.30;99.90
30648;DHT22;17683;53.360;9.736;2022-07-30T11:04:24;22.50;99.90
30648;DHT22;17683;53.360;9.736;2022-07-30T11:06:51;22.50;99.90
30648;DHT22;17683;53.360;9.736;2022-07-30T11:09:37;22.50;99.90
30648;DHT22;17683;53.360;9.736;2022-07-30T11:12:04;22.60;99.90
30648;DHT22;17683;53.360;9.736;2022-07-30T11:17:17;22.70;99.90
30648;DHT22;17683;53.360;9.736;2022-07-30T11:20:12;22.70;99.90
30648;DHT22;17683;53.360;9.736;2022-07-30T11:22:39;22.80;99.90
30648;DHT22;17683;53.360;9.736;2022-07-30T11:27:48;23.00;99.90
30648;DHT22;17683;53.360;9.736;2022-07-30T11:32:41;23.10;99.90
30648;DHT22;17683;53.360;9.736;2022-07-30T11:35:21;23.20;99.90
30648;DHT22;17683;53.360;9.736;2022-07-30T11:40:31;23.30;99.90
30648;DHT22;17683;53.360;9.736;2022-07-30T11:45:47;23.40;99.90
30648;DHT22;17683;53.360;9.736;2022-07-30T11:48:16;23.50;99.90
30648;DHT22;17683;53.360;9.736;2022-07-30T11:50:43;23.50;99.90
30648;DHT22;17683;53.360;9.736;2022-07-30T11:53:14;23.60;99.90
30648;DHT22;17683;53.360;9.736;2022-07-30T11:55:42;23.70;99.90
30648;DHT22;17683;53.360;9.736;2022-07-30T11:58:26;23.80;99.90
30648;DHT22;17683;53.360;9.736;2022-07-30T12:00:54;23.90;99.90
30648;DHT22;17683;53.360;9.736;2022-07-30T12:03:22;24.00;99.90
30648;DHT22;17683;53.360;9.736;2022-07-30T12:05:48;24.20;99.90
30648;DHT22;17683;53.360;9.736;2022-07-30T12:08:15;24.30;99.90
30648;DHT22;17683;53.360;9.736;2022-07-30T12:10:42;24.40;99.90
30648;DHT22;17683;53.360;9.736;2022-07-30T12:13:10;24.50;98.80
30648;DHT22;17683;53.360;9.736;2022-07-30T12:15:39;24.50;98.80
30648;DHT22;17683;53.360;9.736;2022-07-30T12:18:06;24.60;98.80
30648;DHT22;17683;53.360;9.736;2022-07-30T12:20:32;24.80;99.40
30648;DHT22;17683;53.360;9.736;2022-07-30T12:22:58;25.00;98.50
30648;DHT22;17683;53.360;9.736;2022-07-30T12:25:24;25.30;99.20
30648;DHT22;17683;53.360;9.736;2022-07-30T12:27:51;25.50;98.30
30648;DHT22;17683;53.360;9.736;2022-07-30T12:30:17;25.70;98.20
30648;DHT22;17683;53.360;9.736;2022-07-30T12:32:44;25.90;97.50
30648;DHT22;17683;53.360;9.736;2022-07-30T12:35:11;26.00;97.80
30648;DHT22;17683;53.360;9.736;2022-07-30T12:37:37;26.20;97.90
30648;DHT22;17683;53.360;9.736;2022-07-30T12:40:09;26.30;96.90
30648;DHT22;17683;53.360;9.736;2022-07-30T12:42:36;26.30;97.00
30648;DHT22;17683;53.360;9.736;2022-07-30T12:45:04;26.30;96.80
30648;DHT22;17683;53.360;9.736;2022-07-30T12:47:30;26.20;96.80
30648;DHT22;17683;53.360;9.736;2022-07-30T12:50:00;26.20;97.10
30648;DHT22;17683;53.360;9.736;2022-07-30T12:52:33;26.10;97.40
30648;DHT22;17683;53.360;9.736;2022-07-30T12:55:08;26.10;97.70
30648;DHT22;17683;53.360;9.736;2022-07-30T12:57:54;26.10;97.70
30648;DHT22;17683;53.360;9.736;2022-07-30T13:00:22;26.10;97.30
30648;DHT22;17683;53.360;9.736;2022-07-30T13:02:47;26.00;96.70
30648;DHT22;17683;53.360;9.736;2022-07-30T13:05:13;26.00;96.50
30648;DHT22;17683;53.360;9.736;2022-07-30T13:07:53;25.90;95.40
30648;DHT22;17683;53.360;9.736;2022-07-30T13:10:18;25.90;96.70
30648;DHT22;17683;53.360;9.736;2022-07-30T13:12:44;26.00;97.20
30648;DHT22;17683;53.360;9.736;2022-07-30T13:15:20;26.00;96.40
30648;DHT22;17683;53.360;9.736;2022-07-30T13:17:46;26.20;96.90
30648;DHT22;17683;53.360;9.736;2022-07-30T13:20:14;26.20;96.70
30648;DHT22;17683;53.360;9.736;2022-07-30T13:22:40;26.20;95.60
30648;DHT22;17683;53.360;9.736;2022-07-30T13:25:06;26.30;95.20
30648;DHT22;17683;53.360;9.736;2022-07-30T13:27:32;26.30;94.80
30648;DHT22;17683;53.360;9.736;2022-07-30T13:29:59;26.30;94.30
30648;DHT22;17683;53.360;9.736;2022-07-30T13:32:24;26.20;93.80
30648;DHT22;17683;53.360;9.736;2022-07-30T13:34:50;26.10;93.90
30648;DHT22;17683;53.360;9.736;2022-07-30T13:37:16;26.00;94.30
30648;DHT22;17683;53.360;9.736;2022-07-30T13:39:41;25.90;94.70
30648;DHT22;17683;53.360;9.736;2022-07-30T13:42:07;25.80;95.10
30648;DHT22;17683;53.360;9.736;2022-07-30T13:44:33;25.80;95.10
30648;DHT22;17683;53.360;9.736;2022-07-30T13:46:58;25.70;95.00
30648;DHT22;17683;53.360;9.736;2022-07-30T13:49:24;25.60;95.30
30648;DHT22;17683;53.360;9.736;2022-07-30T13:51:50;25.60;95.60
30648;DHT22;17683;53.360;9.736;2022-07-30T13:54:16;25.60;95.70
30648;DHT22;17683;53.360;9.736;2022-07-30T13:56:41;25.60;96.30
30648;DHT22;17683;53.360;9.736;2022-07-30T13:59:07;25.50;95.30
30648;DHT22;17683;53.360;9.736;2022-07-30T14:01:33;25.50;95.70
30648;DHT22;17683;53.360;9.736;2022-07-30T14:04:00;25.50;95.10
30648;DHT22;17683;53.360;9.736;2022-07-30T14:06:26;25.50;95.40
30648;DHT22;17683;53.360;9.736;2022-07-30T14:08:52;25.40;96.00
30648;DHT22;17683;53.360;9.736;2022-07-30T14:11:17;25.40;96.00
30648;DHT22;17683;53.360;9.736;2022-07-30T14:13:43;25.40;95.60
30648;DHT22;17683;53.360;9.736;2022-07-30T14:16:10;25.40;96.30
30648;DHT22;17683;53.360;9.736;2022-07-30T14:18:36;25.50;97.10
30648;DHT22;17683;53.360;9.736;2022-07-30T14:21:02;25.60;96.20
30648;DHT22;17683;53.360;9.736;2022-07-30T14:23:28;25.60;96.10
30648;DHT22;17683;53.360;9.736;2022-07-30T14:25:55;25.70;96.50
30648;DHT22;17683;53.360;9.736;2022-07-30T14:28:21;25.80;95.70
30648;DHT22;17683;53.360;9.736;2022-07-30T14:30:46;25.80;95.70
30648;DHT22;17683;53.360;9.736;2022-07-30T14:33:12;25.80;95.70
30648;DHT22;17683;53.360;9.736;2022-07-30T14:35:38;25.80;95.90
30648;DHT22;17683;53.360;9.736;2022-07-30T14:38:03;25.80;96.10
30648;DHT22;17683;53.360;9.736;2022-07-30T14:40:30;25.80;95.90
30648;DHT22;17683;53.360;9.736;2022-07-30T14:42:56;25.70;95.80
30648;DHT22;17683;53.360;9.736;2022-07-30T14:45:21;25.70;96.00
30648;DHT22;17683;53.360;9.736;2022-07-30T14:47:47;25.70;96.10
30648;DHT22;17683;53.360;9.736;2022-07-30T14:50:13;25.60;95.60
30648;DHT22;17683;53.360;9.736;2022-07-30T14:52:39;25.60;96.50
30648;DHT22;17683;53.360;9.736;2022-07-30T14:55:06;25.60;96.60
30648;DHT22;17683;53.360;9.736;2022-07-30T14:57:32;25.60;96.20
30648;DHT22;17683;53.360;9.736;2022-07-30T14:59:58;25.60;96.50
30648;DHT22;17683;53.360;9.736;2022-07-30T15:02:24;25.70;96.70
30648;DHT22;17683;53.360;9.736;2022-07-30T15:04:50;25.70;97.10
30648;DHT22;17683;53.360;9.736;2022-07-30T15:07:15;25.70;96.70
30648;DHT22;17683;53.360;9.736;2022-07-30T15:09:41;25.60;96.50
30648;DHT22;17683;53.360;9.736;2022-07-30T15:12:07;25.60;96.80
30648;DHT22;17683;53.360;9.736;2022-07-30T15:14:36;25.60;96.60
30648;DHT22;17683;53.360;9.736;2022-07-30T15:17:02;25.50;97.00
30648;DHT22;17683;53.360;9.736;2022-07-30T15:19:28;25.60;97.50
30648;DHT22;17683;53.360;9.736;2022-07-30T15:21:54;25.50;96.70
30648;DHT22;17683;53.360;9.736;2022-07-30T15:24:19;25.50;96.50
30648;DHT22;17683;53.360;9.736;2022-07-30T15:26:45;25.50;97.80
30648;DHT22;17683;53.360;9.736;2022-07-30T15:29:11;25.50;97.30
30648;DHT22;17683;53.360;9.736;2022-07-30T15:31:37;25.40;97.00
30648;DHT22;17683;53.360;9.736;2022-07-30T15:34:03;25.40;96.70
30648;DHT22;17683;53.360;9.736;2022-07-30T15:36:29;25.40;96.70
30648;DHT22;17683;53.360;9.736;2022-07-30T15:38:55;25.40;96.90
30648;DHT22;17683;53.360;9.736;2022-07-30T15:41:20;25.40;97.00
30648;DHT22;17683;53.360;9.736;2022-07-30T15:43:46;25.30;97.00
30648;DHT22;17683;53.360;9.736;2022-07-30T15:46:12;25.30;96.80
30648;DHT22;17683;53.360;9.736;2022-07-30T15:48:37;25.30;97.30
30648;DHT22;17683;53.360;9.736;2022-07-30T15:51:04;25.20;97.00
30648;DHT22;17683;53.360;9.736;2022-07-30T15:53:30;25.20;97.00
30648;DHT22;17683;53.360;9.736;2022-07-30T15:55:57;25.10;97.20
30648;DHT22;17683;53.360;9.736;2022-07-30T15:58:23;25.10;97.80
30648;DHT22;17683;53.360;9.736;2022-07-30T16:00:49;25.00;97.20